createdAt,value
2019-01-05T16:40:07.505Z,1017.93
2019-01-05T16:41:07.472Z,1017.91
2019-01-05T16:43:11.417Z,1017.95
2019-01-05T16:44:11.402Z,1017.94
2019-01-05T16:46:15.870Z,1017.95
2019-01-05T16:47:15.833Z,1017.97
2019-01-05T16:48:15.827Z,1017.98
2019-01-05T16:49:15.815Z,1017.96
2019-01-05T16:50:15.807Z,1018.01
2019-01-05T16:51:15.794Z,1018.00
2019-01-05T16:52:15.788Z,1018.02
2019-01-05T16:53:15.779Z,1018.06
2019-01-05T16:54:15.770Z,1018.00
2019-01-05T16:55:15.760Z,1018.01
2019-01-05T16:56:15.747Z,1018.01
2019-01-05T16:57:15.789Z,1018.02
2019-01-05T16:58:15.733Z,1017.98
2019-01-05T16:59:15.721Z,1017.98
2019-01-05T17:00:15.708Z,1018.04
2019-01-05T17:01:22.461Z,1018.04
2019-01-05T17:02:15.691Z,1018.00
2019-01-05T17:03:15.679Z,1018.04
2019-01-05T17:04:15.675Z,1018.03
2019-01-05T17:05:15.659Z,1018.07
2019-01-05T17:06:15.646Z,1018.06
2019-01-05T17:07:15.646Z,1018.10
2019-01-05T17:08:15.635Z,1018.12
2019-01-05T17:09:15.648Z,1018.13
2019-01-05T17:10:15.618Z,1018.14
2019-01-05T17:11:15.601Z,1018.24
2019-01-05T17:12:15.591Z,1018.10
2019-01-05T17:13:15.591Z,1018.12
2019-01-05T17:14:15.590Z,1018.15
2019-01-05T17:15:15.582Z,1018.15
2019-01-05T17:16:15.588Z,1018.13
2019-01-05T17:17:15.548Z,1018.14
2019-01-05T17:18:15.543Z,1018.16
2019-01-05T17:19:16.404Z,1018.14
2019-01-05T17:20:15.512Z,1018.11
2019-01-05T17:21:15.508Z,1018.20
2019-01-05T17:22:15.500Z,1018.18
2019-01-05T17:23:15.498Z,1018.19
2019-01-05T17:24:15.485Z,1018.20
2019-01-05T17:25:15.476Z,1018.16
2019-01-05T17:26:15.465Z,1018.18
2019-01-05T17:27:15.451Z,1018.14
2019-01-05T17:28:15.447Z,1018.14
2019-01-05T17:29:15.425Z,1018.14
2019-01-05T17:30:15.427Z,1018.14
2019-01-05T17:31:15.425Z,1018.17
2019-01-05T17:32:15.405Z,1018.14
2019-01-05T17:33:15.393Z,1018.18
2019-01-05T17:34:15.417Z,1018.19
2019-01-05T17:35:15.376Z,1018.14
2019-01-05T17:36:15.383Z,1018.14
2019-01-05T17:37:15.358Z,1018.17
2019-01-05T17:38:15.365Z,1018.19
2019-01-05T17:39:15.343Z,1018.19
2019-01-05T17:40:15.345Z,1018.19
2019-01-05T17:41:15.323Z,1018.18
2019-01-05T17:42:15.336Z,1018.18
2019-01-05T17:43:15.310Z,1018.20
2019-01-05T17:44:15.312Z,1018.18
2019-01-05T17:45:15.286Z,1018.18
2019-01-05T17:46:15.282Z,1018.21
2019-01-05T17:47:15.262Z,1018.20
2019-01-05T17:48:15.257Z,1018.19
2019-01-05T17:49:15.324Z,1018.18
2019-01-05T17:50:15.240Z,1018.17
2019-01-05T17:51:15.230Z,1018.17
2019-01-05T17:52:15.216Z,1018.21
2019-01-05T17:53:15.229Z,1018.25
2019-01-05T17:54:15.248Z,1018.21
2019-01-05T17:55:15.245Z,1018.23
2019-01-05T17:56:15.201Z,1018.25
2019-01-05T17:57:15.161Z,1018.24
2019-01-05T17:58:15.193Z,1018.24
2019-01-05T17:59:15.154Z,1018.27
2019-01-05T18:00:15.150Z,1018.24
2019-01-05T18:01:15.129Z,1018.25
2019-01-05T18:02:15.121Z,1018.26
2019-01-05T18:03:15.231Z,1018.23
2019-01-05T18:04:15.124Z,1018.28
2019-01-05T18:05:15.101Z,1018.26
2019-01-05T18:06:15.108Z,1018.24
2019-01-05T18:07:15.119Z,1018.24
2019-01-05T18:08:15.121Z,1018.22
2019-01-05T18:09:15.069Z,1018.23
2019-01-05T18:10:15.076Z,1018.22
2019-01-05T18:11:15.092Z,1018.22
2019-01-05T18:12:15.042Z,1018.22
2019-01-05T18:13:15.031Z,1018.20
2019-01-05T18:14:15.033Z,1018.24
2019-01-05T18:15:15.012Z,1018.23
2019-01-05T18:16:14.988Z,1018.26
2019-01-05T18:17:14.982Z,1018.30
2019-01-05T18:18:14.976Z,1018.24
2019-01-05T18:19:14.996Z,1018.20
2019-01-05T18:20:14.953Z,1018.23
2019-01-05T18:21:14.963Z,1018.26
2019-01-05T18:22:14.987Z,1018.29
2019-01-05T18:23:15.010Z,1018.28
2019-01-05T18:24:14.935Z,1018.30
2019-01-05T18:25:14.901Z,1018.28
2019-01-05T18:26:14.907Z,1018.28
2019-01-05T18:27:14.874Z,1018.20
2019-01-05T18:28:14.893Z,1018.23
2019-01-05T18:29:14.866Z,1018.25
2019-01-05T18:30:14.859Z,1018.24
2019-01-05T18:31:14.924Z,1018.23
2019-01-05T18:32:14.850Z,1018.26
2019-01-05T18:33:14.852Z,1018.18
2019-01-05T18:34:14.813Z,1018.16
2019-01-05T18:35:14.850Z,1018.22
2019-01-05T18:36:14.875Z,1018.15
2019-01-05T18:37:14.800Z,1018.19
2019-01-05T18:38:14.775Z,1018.19
2019-01-05T18:39:14.782Z,1018.16
2019-01-05T18:40:14.764Z,1018.22
2019-01-05T18:41:14.750Z,1018.24
2019-01-05T18:42:14.756Z,1018.16
2019-01-05T18:43:14.720Z,1018.25
2019-01-05T18:44:14.718Z,1018.24
2019-01-05T18:45:14.785Z,1018.16
2019-01-05T18:46:14.729Z,1018.23
2019-01-05T18:47:14.700Z,1018.15
2019-01-05T18:48:14.678Z,1018.14
2019-01-05T18:49:14.672Z,1018.13
2019-01-05T18:50:14.680Z,1018.11
2019-01-05T18:51:14.684Z,1018.08
2019-01-05T18:52:14.670Z,1018.17
2019-01-05T18:53:14.628Z,1018.08
2019-01-05T18:54:14.663Z,1018.09
2019-01-05T18:55:14.630Z,1018.04
2019-01-05T18:56:14.601Z,1018.09
2019-01-05T18:57:14.593Z,1018.05
2019-01-05T18:58:14.575Z,1017.99
2019-01-05T18:59:14.595Z,1018.02
2019-01-05T19:00:14.561Z,1017.97
2019-01-05T19:01:14.550Z,1017.95
2019-01-05T19:02:14.570Z,1017.99
2019-01-05T19:03:14.574Z,1017.94
2019-01-05T19:04:14.522Z,1017.91
2019-01-05T19:05:14.581Z,1017.92
2019-01-05T19:06:14.543Z,1017.88
2019-01-05T19:07:14.523Z,1017.88
2019-01-05T19:08:14.489Z,1017.88
2019-01-05T19:09:14.475Z,1017.81
2019-01-05T19:10:14.463Z,1017.82
2019-01-05T19:11:14.543Z,1017.85
2019-01-05T19:12:14.464Z,1017.77
2019-01-05T19:13:14.437Z,1017.78
2019-01-05T19:14:14.426Z,1017.76
2019-01-05T19:15:14.452Z,1017.70
2019-01-05T19:16:14.403Z,1017.67
2019-01-05T19:17:14.394Z,1017.75
2019-01-05T19:18:14.393Z,1017.71
2019-01-05T19:19:14.374Z,1017.77
2019-01-05T19:20:14.364Z,1017.77
2019-01-05T19:21:14.354Z,1017.79
2019-01-05T19:22:14.347Z,1017.86
2019-01-05T19:23:14.361Z,1017.81
2019-01-05T19:24:14.331Z,1017.93
2019-01-05T19:25:14.319Z,1017.97
2019-01-05T19:26:14.308Z,1017.99
2019-01-05T19:27:14.332Z,1018.04
2019-01-05T19:28:14.285Z,1017.99
2019-01-05T19:29:14.300Z,1018.01
2019-01-05T19:30:14.295Z,1018.00
2019-01-05T19:31:14.266Z,1018.02
2019-01-05T19:32:14.249Z,1018.13
2019-01-05T19:33:14.249Z,1018.12
2019-01-05T19:34:14.224Z,1018.06
2019-01-05T19:35:14.250Z,1018.06
2019-01-05T19:36:14.204Z,1018.12
2019-01-05T19:37:14.222Z,1018.06
2019-01-05T19:38:14.186Z,1018.04
2019-01-05T19:39:14.178Z,1018.05
2019-01-05T19:40:14.167Z,1018.07
2019-01-05T19:41:15.068Z,1017.98
2019-01-05T19:42:14.207Z,1017.99
2019-01-05T19:43:14.150Z,1017.97
2019-01-05T19:44:14.128Z,1017.98
2019-01-05T19:45:14.117Z,1017.99
2019-01-05T19:46:14.110Z,1017.96
2019-01-05T19:47:14.097Z,1017.98
2019-01-05T19:48:14.086Z,1017.98
2019-01-05T19:49:14.071Z,1017.93
2019-01-05T19:50:14.066Z,1017.94
2019-01-05T19:51:14.153Z,1017.86
2019-01-05T19:52:14.048Z,1017.87
2019-01-05T19:53:14.038Z,1017.93
2019-01-05T19:54:14.049Z,1017.89
2019-01-05T19:55:14.028Z,1017.89
2019-01-05T19:56:14.011Z,1017.88
2019-01-05T19:57:13.997Z,1017.86
2019-01-05T19:58:13.990Z,1017.91
2019-01-05T19:59:13.979Z,1017.93
2019-01-05T20:00:13.969Z,1017.92
2019-01-05T20:01:13.955Z,1017.95
2019-01-05T20:02:13.949Z,1017.98
2019-01-05T20:03:13.935Z,1017.90
2019-01-05T20:04:13.930Z,1017.94
2019-01-05T20:05:13.906Z,1017.94
2019-01-05T20:06:13.916Z,1017.95
2019-01-05T20:07:13.898Z,1017.93
2019-01-05T20:08:13.881Z,1017.98
2019-01-05T20:09:13.877Z,1017.98
2019-01-05T20:10:13.903Z,1017.95
2019-01-05T20:11:13.857Z,1018.00
2019-01-05T20:12:13.884Z,1017.93
2019-01-05T20:13:13.834Z,1017.95
2019-01-05T20:14:13.828Z,1017.94
2019-01-05T20:15:13.815Z,1017.97
2019-01-05T20:16:13.807Z,1017.94
2019-01-05T20:17:13.798Z,1017.96
2019-01-05T20:18:13.785Z,1017.94
2019-01-05T20:19:13.777Z,1017.93
2019-01-05T20:20:13.765Z,1017.87
2019-01-05T20:21:13.756Z,1017.99
2019-01-05T20:22:13.746Z,1017.97
2019-01-05T20:23:13.757Z,1017.94
2019-01-05T20:24:13.724Z,1017.97
2019-01-05T20:25:13.716Z,1017.94
2019-01-05T20:26:13.706Z,1017.95
2019-01-05T20:27:13.694Z,1017.95
2019-01-05T20:28:13.681Z,1017.92
2019-01-05T20:29:13.670Z,1018.02
2019-01-05T20:30:13.662Z,1018.01
2019-01-05T20:31:13.654Z,1017.98
2019-01-05T20:32:13.644Z,1017.98
2019-01-05T20:33:13.634Z,1017.93
2019-01-05T20:34:13.624Z,1017.99
2019-01-05T20:35:13.605Z,1017.96
2019-01-05T20:36:13.596Z,1017.93
2019-01-05T20:37:13.592Z,1017.98
2019-01-05T20:38:13.584Z,1017.94
2019-01-05T20:39:13.571Z,1017.95
2019-01-05T20:40:13.563Z,1017.96
2019-01-05T20:41:13.549Z,1017.95
2019-01-05T20:42:13.542Z,1017.95
2019-01-05T20:43:13.532Z,1017.94
2019-01-05T20:44:13.523Z,1017.95
2019-01-05T20:45:13.514Z,1017.99
2019-01-05T20:46:13.500Z,1017.94
2019-01-05T20:47:13.491Z,1017.93
2019-01-05T20:48:13.477Z,1017.90
2019-01-05T20:49:13.475Z,1017.86
2019-01-05T20:50:13.462Z,1017.85
2019-01-05T20:51:13.452Z,1017.88
2019-01-05T20:52:13.444Z,1017.92
2019-01-05T20:53:13.428Z,1017.92
2019-01-05T20:54:13.423Z,1017.88
2019-01-05T20:55:13.407Z,1017.86
2019-01-05T20:56:13.423Z,1017.89
2019-01-05T20:57:13.387Z,1017.82
2019-01-05T20:58:13.421Z,1017.83
2019-01-05T20:59:13.370Z,1017.83
2019-01-05T21:00:13.358Z,1017.84
2019-01-05T21:01:13.368Z,1017.83
2019-01-05T21:02:13.341Z,1017.85
2019-01-05T21:03:13.328Z,1017.95
2019-01-05T21:04:13.323Z,1017.90
2019-01-05T21:05:13.311Z,1017.92
2019-01-05T21:06:13.299Z,1017.92
2019-01-05T21:07:13.293Z,1017.95
2019-01-05T21:08:13.278Z,1017.91
2019-01-05T21:09:13.270Z,1017.98
2019-01-05T21:10:13.259Z,1017.95
2019-01-05T21:11:13.250Z,1018.01
2019-01-05T21:12:13.268Z,1018.03
2019-01-05T21:13:13.231Z,1018.00
2019-01-05T21:14:13.221Z,1018.01
2019-01-05T21:15:13.210Z,1018.01
2019-01-05T21:16:13.197Z,1018.03
2019-01-05T21:17:13.202Z,1018.06
2019-01-05T21:18:13.205Z,1018.07
2019-01-05T21:19:13.183Z,1018.05
2019-01-05T21:20:13.160Z,1018.07
2019-01-05T21:21:13.147Z,1018.11
2019-01-05T21:22:13.141Z,1018.12
2019-01-05T21:23:13.136Z,1018.16
2019-01-05T21:24:13.122Z,1018.19
2019-01-05T21:25:13.108Z,1018.17
2019-01-05T21:26:13.112Z,1018.19
2019-01-05T21:27:13.092Z,1018.16
2019-01-05T21:28:13.076Z,1018.19
2019-01-05T21:29:13.073Z,1018.22
2019-01-05T21:30:13.063Z,1018.24
2019-01-05T21:31:13.053Z,1018.28
2019-01-05T21:32:13.043Z,1018.24
2019-01-05T21:33:13.029Z,1018.27
2019-01-05T21:34:13.023Z,1018.26
2019-01-05T21:35:13.009Z,1018.28
2019-01-05T21:36:13.001Z,1018.35
2019-01-05T21:37:12.991Z,1018.30
2019-01-05T21:38:12.979Z,1018.27
2019-01-05T21:39:12.970Z,1018.29
2019-01-05T21:40:12.960Z,1018.40
2019-01-05T21:41:12.959Z,1018.30
2019-01-05T21:42:12.941Z,1018.31
2019-01-05T21:43:12.951Z,1018.33
2019-01-05T21:44:12.924Z,1018.29
2019-01-05T21:45:12.914Z,1018.31
2019-01-05T21:46:12.907Z,1018.27
2019-01-05T21:47:12.887Z,1018.23
2019-01-05T21:48:12.875Z,1018.31
2019-01-05T21:49:12.881Z,1018.31
2019-01-05T21:50:12.856Z,1018.30
2019-01-05T21:51:12.849Z,1018.36
2019-01-05T21:52:12.840Z,1018.38
2019-01-05T21:53:12.830Z,1018.38
2019-01-05T21:54:12.820Z,1018.33
2019-01-05T21:55:12.805Z,1018.44
2019-01-05T21:56:12.799Z,1018.38
2019-01-05T21:57:12.790Z,1018.37
2019-01-05T21:58:12.780Z,1018.34
2019-01-05T21:59:12.768Z,1018.33
2019-01-05T22:00:12.758Z,1018.38
2019-01-05T22:01:12.744Z,1018.35
2019-01-05T22:02:12.737Z,1018.35
2019-01-05T22:03:12.728Z,1018.32
2019-01-05T22:04:12.715Z,1018.31
2019-01-05T22:05:12.710Z,1018.28
2019-01-05T22:06:12.721Z,1018.32
2019-01-05T22:07:12.683Z,1018.35
2019-01-05T22:08:12.676Z,1018.31
2019-01-05T22:09:12.661Z,1018.29
2019-01-05T22:10:12.655Z,1018.33
2019-01-05T22:11:12.645Z,1018.29
2019-01-05T22:12:12.641Z,1018.32
2019-01-05T22:13:12.622Z,1018.26
2019-01-05T22:14:12.618Z,1018.26
2019-01-05T22:15:12.605Z,1018.33
2019-01-05T22:16:12.593Z,1018.36
2019-01-05T22:17:12.587Z,1018.30
2019-01-05T22:18:12.576Z,1018.32
2019-01-05T22:19:12.566Z,1018.30
2019-01-05T22:20:12.560Z,1018.35
2019-01-05T22:21:12.551Z,1018.39
2019-01-05T22:22:12.540Z,1018.38
2019-01-05T22:23:12.522Z,1018.40
2019-01-05T22:24:12.518Z,1018.40
2019-01-05T22:25:12.503Z,1018.38
2019-01-05T22:26:12.495Z,1018.36
2019-01-05T22:27:12.485Z,1018.36
2019-01-05T22:28:12.481Z,1018.33
2019-01-05T22:29:12.465Z,1018.28
2019-01-05T22:30:12.454Z,1018.32
2019-01-05T22:31:12.446Z,1018.32
2019-01-05T22:32:12.435Z,1018.32
2019-01-05T22:33:12.426Z,1018.35
2019-01-05T22:34:12.417Z,1018.30
2019-01-05T22:35:12.406Z,1018.28
2019-01-05T22:36:12.393Z,1018.28
2019-01-05T22:37:12.391Z,1018.30
2019-01-05T22:38:12.381Z,1018.31
2019-01-05T22:39:12.464Z,1018.30
2019-01-05T22:40:12.359Z,1018.26
2019-01-05T22:41:12.349Z,1018.29
2019-01-05T22:42:12.337Z,1018.30
2019-01-05T22:43:12.326Z,1018.31
2019-01-05T22:44:12.317Z,1018.32
2019-01-05T22:45:12.309Z,1018.31
2019-01-05T22:46:12.299Z,1018.33
2019-01-05T22:47:12.290Z,1018.29
2019-01-05T22:48:12.289Z,1018.30
2019-01-05T22:49:12.271Z,1018.32
2019-01-05T22:50:12.262Z,1018.24
2019-01-05T22:51:12.258Z,1018.33
2019-01-05T22:52:12.242Z,1018.29
2019-01-05T22:53:12.233Z,1018.29
2019-01-05T22:54:12.220Z,1018.27
2019-01-05T22:55:12.210Z,1018.25
2019-01-05T22:56:12.197Z,1018.26
2019-01-05T22:57:12.194Z,1018.22
2019-01-05T22:58:12.180Z,1018.19
2019-01-05T22:59:12.173Z,1018.16
2019-01-05T23:00:12.165Z,1018.13
2019-01-05T23:01:12.150Z,1018.14
2019-01-05T23:02:12.142Z,1018.10
2019-01-05T23:03:12.129Z,1018.05
2019-01-05T23:04:12.119Z,1018.12
2019-01-05T23:05:12.113Z,1018.11
2019-01-05T23:06:12.104Z,1018.11
2019-01-05T23:07:12.087Z,1018.10
2019-01-05T23:08:12.084Z,1018.06
2019-01-05T23:09:12.071Z,1018.07
2019-01-05T23:10:12.058Z,1018.05
2019-01-05T23:11:12.052Z,1018.09
2019-01-05T23:12:12.042Z,1018.14
2019-01-05T23:13:12.034Z,1018.16
2019-01-05T23:14:12.027Z,1018.14
2019-01-05T23:15:12.011Z,1018.16
2019-01-05T23:16:12.006Z,1018.19
2019-01-05T23:17:11.998Z,1018.21
2019-01-05T23:18:11.988Z,1018.24
2019-01-05T23:19:11.977Z,1018.27
2019-01-05T23:20:11.969Z,1018.20
2019-01-05T23:21:11.954Z,1018.27
2019-01-05T23:22:12.037Z,1018.33
2019-01-05T23:23:11.934Z,1018.29
2019-01-05T23:24:11.926Z,1018.29
2019-01-05T23:25:11.919Z,1018.34
2019-01-05T23:26:11.906Z,1018.32
2019-01-05T23:27:11.896Z,1018.30
2019-01-05T23:28:11.884Z,1018.25
2019-01-05T23:29:15.032Z,1018.28
2019-01-05T23:30:11.865Z,1018.29
2019-01-05T23:31:11.854Z,1018.28
2019-01-05T23:32:11.846Z,1018.28
2019-01-05T23:33:11.837Z,1018.29
2019-01-05T23:34:11.826Z,1018.32
2019-01-05T23:35:11.818Z,1018.29
2019-01-05T23:36:11.805Z,1018.35
2019-01-05T23:37:11.795Z,1018.40
2019-01-05T23:38:11.788Z,1018.33
2019-01-05T23:39:11.781Z,1018.39
2019-01-05T23:40:11.765Z,1018.33
2019-01-05T23:41:11.758Z,1018.36
2019-01-05T23:42:11.745Z,1018.41
2019-01-05T23:43:11.735Z,1018.36
2019-01-05T23:44:11.729Z,1018.41
2019-01-05T23:45:11.719Z,1018.43
2019-01-05T23:46:11.706Z,1018.47
2019-01-05T23:47:11.788Z,1018.49
2019-01-05T23:48:11.690Z,1018.51
2019-01-05T23:49:11.677Z,1018.53
2019-01-05T23:50:11.667Z,1018.49
2019-01-05T23:51:11.665Z,1018.54
2019-01-05T23:52:11.650Z,1018.51
2019-01-05T23:53:11.641Z,1018.51
2019-01-05T23:54:11.631Z,1018.53
2019-01-05T23:55:11.625Z,1018.47
2019-01-05T23:56:11.608Z,1018.46
2019-01-05T23:57:11.602Z,1018.47
2019-01-05T23:58:11.594Z,1018.47
2019-01-05T23:59:11.582Z,1018.50
